Time,TemperatureF,DewpointF,PressureIn,WindDirection,WindDirectionDegrees,WindSpeedMPH,WindSpeedGustMPH,Humidity,HourlyPrecipIn,Conditions,Clouds,dailyrainin,SolarRadiationWatts/m^2,SoftwareType,DateUTC
2013-06-11 00:02:00,89.0,31.0,29.99,SSE,167,18.0,34.0,12,-99.99,,,-99.99,0.000000,,2013-06-11 06:02:00,
2013-06-11 00:12:00,89.0,32.0,29.99,SSE,167,21.0,32.0,12,-99.99,,,-99.99,0.000000,,2013-06-11 06:12:00,
2013-06-11 00:22:00,88.0,32.0,29.99,SSE,165,19.0,32.0,13,-99.99,,,-99.99,0.000000,,2013-06-11 06:22:00,
2013-06-11 00:32:00,88.0,32.0,30.00,SSE,160,18.0,31.0,13,-99.99,,,-99.99,0.000000,,2013-06-11 06:32:00,
2013-06-11 00:42:00,88.0,32.0,30.00,SSE,160,18.0,31.0,13,-99.99,,,-99.99,0.000000,,2013-06-11 06:42:00,
2013-06-11 00:52:00,88.0,32.0,30.00,SSE,160,18.0,31.0,13,-99.99,,,-99.99,0.000000,,2013-06-11 06:52:00,
2013-06-11 01:02:00,88.0,32.0,30.00,SSE,160,18.0,31.0,13,-99.99,,,-99.99,0.000000,,2013-06-11 07:02:00,
2013-06-11 01:12:00,87.0,33.0,30.00,SSE,162,18.0,27.0,14,-99.99,,,-99.99,0.000000,,2013-06-11 07:12:00,
2013-06-11 01:22:00,88.0,32.0,30.00,SSE,157,18.0,27.0,13,-99.99,,,-99.99,0.000000,,2013-06-11 07:22:00,
2013-06-11 01:32:00,88.0,32.0,30.00,SSE,157,18.0,27.0,13,-99.99,,,-99.99,0.000000,,2013-06-11 07:32:00,
2013-06-11 01:42:00,87.0,32.0,30.01,SSE,158,15.0,29.0,14,-99.99,,,-99.99,0.000000,,2013-06-11 07:42:00,
2013-06-11 01:52:00,86.0,33.0,30.01,SSE,152,17.0,28.0,14,-99.99,,,-99.99,0.000000,,2013-06-11 07:52:00,
2013-06-11 02:02:00,86.0,33.0,30.01,SSE,152,17.0,28.0,14,-99.99,,,-99.99,0.000000,,2013-06-11 08:02:00,
2013-06-11 02:12:00,85.0,33.0,30.01,SE,143,15.0,23.0,15,-99.99,,,-99.99,0.000000,,2013-06-11 08:12:00,
2013-06-11 02:22:00,85.0,34.0,30.01,SE,137,13.0,24.0,15,-99.99,,,-99.99,0.000000,,2013-06-11 08:22:00,
2013-06-11 02:32:00,83.0,35.0,30.01,SE,129,13.0,25.0,17,-99.99,,,-99.99,0.000000,,2013-06-11 08:32:00,
2013-06-11 02:42:00,83.0,35.0,30.01,SE,129,13.0,25.0,17,-99.99,,,-99.99,0.000000,,2013-06-11 08:42:00,
2013-06-11 02:52:00,86.0,35.0,30.00,SSE,154,15.0,26.0,16,-99.99,,,-99.99,0.000000,,2013-06-11 08:52:00,
2013-06-11 03:02:00,86.0,35.0,30.00,SSE,154,15.0,26.0,16,-99.99,,,-99.99,0.000000,,2013-06-11 09:02:00,
2013-06-11 03:12:00,85.0,35.0,30.00,SW,232,9.0,23.0,17,-99.99,,,-99.99,0.000000,,2013-06-11 09:12:00,
2013-06-11 03:22:00,81.0,37.0,30.01,SW,227,8.0,13.0,20,-99.99,,,-99.99,0.000000,,2013-06-11 09:22:00,
2013-06-11 03:33:00,80.0,37.0,30.01,WSW,256,5.0,12.0,20,-99.99,,,-99.99,0.000000,,2013-06-11 09:33:00,
2013-06-11 03:43:00,80.0,37.0,30.01,WSW,256,5.0,12.0,20,-99.99,,,-99.99,0.000000,,2013-06-11 09:43:00,
2013-06-11 03:53:00,80.0,37.0,30.02,West,262,7.0,13.0,21,-99.99,,,-99.99,0.000000,,2013-06-11 09:53:00,
2013-06-11 04:03:00,80.0,37.0,30.02,West,262,7.0,13.0,21,-99.99,,,-99.99,0.000000,,2013-06-11 10:03:00,
2013-06-11 04:12:00,80.0,38.0,30.02,West,266,7.0,11.0,22,-99.99,,,-99.99,0.000000,,2013-06-11 10:12:00,
2013-06-11 04:22:00,78.0,38.0,30.02,North,8,2.0,5.0,23,-99.99,,,-99.99,0.000000,,2013-06-11 10:22:00,
2013-06-11 04:33:00,75.0,39.0,30.02,WNW,293,6.0,9.0,26,-99.99,,,-99.99,0.000000,,2013-06-11 10:33:00,
2013-06-11 04:42:00,75.0,39.0,30.02,WNW,293,6.0,9.0,26,-99.99,,,-99.99,0.000000,,2013-06-11 10:42:00,
2013-06-11 04:52:00,74.0,38.0,30.02,NNW,329,5.0,8.0,27,-99.99,,,-99.99,0.000000,,2013-06-11 10:52:00,
2013-06-11 05:02:00,74.0,38.0,30.02,NNW,329,5.0,8.0,27,-99.99,,,-99.99,0.000000,,2013-06-11 11:02:00,
2013-06-11 05:12:00,73.0,41.0,30.03,West,275,2.0,3.0,31,-99.99,,,-99.99,0.000000,,2013-06-11 11:12:00,
2013-06-11 05:22:00,70.0,40.0,30.03,WNW,295,5.0,7.0,33,-99.99,,,-99.99,0.000000,,2013-06-11 11:22:00,
2013-06-11 05:32:00,69.0,41.0,30.04,NW,319,3.0,5.0,35,-99.99,,,-99.99,0.000000,,2013-06-11 11:32:00,
2013-06-11 05:42:00,69.0,41.0,30.04,NW,319,3.0,5.0,35,-99.99,,,-99.99,0.000000,,2013-06-11 11:42:00,
2013-06-11 05:52:00,69.0,41.0,30.04,NW,319,3.0,5.0,35,-99.99,,,-99.99,0.000000,,2013-06-11 11:52:00,
2013-06-11 06:02:00,69.0,41.0,30.04,NW,319,3.0,5.0,35,-99.99,,,-99.99,0.000000,,2013-06-11 12:02:00,
2013-06-11 06:12:00,68.0,40.0,30.04,WNW,298,4.0,8.0,34,-99.99,,,-99.99,0.000000,,2013-06-11 12:12:00,
2013-06-11 06:22:00,68.0,39.0,30.04,NW,314,6.0,8.0,35,-99.99,,,-99.99,2.790000,,2013-06-11 12:22:00,
2013-06-11 06:32:00,68.0,39.0,30.04,NW,314,6.0,8.0,35,-99.99,,,-99.99,2.790000,,2013-06-11 12:32:00,
2013-06-11 06:42:00,67.0,42.0,30.05,NW,305,5.0,6.0,40,-99.99,,,-99.99,13.250000,,2013-06-11 12:42:00,
2013-06-11 06:52:00,68.0,41.0,30.05,WNW,291,4.0,7.0,37,-99.99,,,-99.99,43.930000,,2013-06-11 12:52:00,
2013-06-11 07:02:00,68.0,41.0,30.05,WNW,291,4.0,7.0,37,-99.99,,,-99.99,43.930000,,2013-06-11 13:02:00,
2013-06-11 07:12:00,69.0,42.0,30.05,WNW,292,3.0,5.0,38,-99.99,,,-99.99,91.349998,,2013-06-11 13:12:00,
2013-06-11 07:22:00,73.0,40.0,30.06,NNW,329,3.0,4.0,30,-99.99,,,-99.99,135.979996,,2013-06-11 13:22:00,
2013-06-11 07:32:00,76.0,40.0,30.06,NW,324,2.0,3.0,27,-99.99,,,-99.99,179.210007,,2013-06-11 13:32:00,
2013-06-11 07:42:00,76.0,40.0,30.06,NW,324,2.0,3.0,27,-99.99,,,-99.99,179.210007,,2013-06-11 13:42:00,
2013-06-11 07:52:00,76.0,40.0,30.06,NW,324,2.0,3.0,27,-99.99,,,-99.99,179.210007,,2013-06-11 13:52:00,
2013-06-11 08:02:00,76.0,40.0,30.06,NW,324,2.0,3.0,27,-99.99,,,-99.99,179.210007,,2013-06-11 14:02:00,
2013-06-11 08:12:00,77.0,40.0,30.05,NNE,18,4.0,5.0,26,-99.99,,,-99.99,279.630005,,2013-06-11 14:12:00,
2013-06-11 08:22:00,79.0,40.0,30.06,NE,40,2.0,4.0,25,-99.99,,,-99.99,330.540009,,2013-06-11 14:22:00,
2013-06-11 08:32:00,80.0,40.0,30.06,NNE,16,3.0,5.0,24,-99.99,,,-99.99,378.649994,,2013-06-11 14:32:00,
2013-06-11 08:42:00,80.0,40.0,30.06,NNE,16,3.0,5.0,24,-99.99,,,-99.99,378.649994,,2013-06-11 14:42:00,
2013-06-11 08:53:00,82.0,39.0,30.06,NNE,26,2.0,3.0,21,-99.99,,,-99.99,396.089996,,2013-06-11 14:53:00,
2013-06-11 09:02:00,82.0,39.0,30.06,NNE,26,2.0,3.0,21,-99.99,,,-99.99,396.089996,,2013-06-11 15:02:00,
2013-06-11 09:12:00,84.0,39.0,30.07,East,87,1.0,4.0,20,-99.99,,,-99.99,460.940002,,2013-06-11 15:12:00,
2013-06-11 09:22:00,84.0,40.0,30.07,ENE,76,3.0,8.0,21,-99.99,,,-99.99,496.500000,,2013-06-11 15:22:00,
2013-06-11 09:33:00,84.0,40.0,30.07,ENE,76,3.0,8.0,21,-99.99,,,-99.99,496.500000,,2013-06-11 15:33:00,
2013-06-11 09:42:00,84.0,41.0,30.06,SE,134,5.0,10.0,21,-99.99,,,-99.99,542.530029,,2013-06-11 15:42:00,
2013-06-11 09:53:00,86.0,41.0,30.06,ESE,110,6.0,13.0,20,-99.99,,,-99.99,621.320007,,2013-06-11 15:53:00,
2013-06-11 10:03:00,86.0,41.0,30.06,ESE,110,6.0,13.0,20,-99.99,,,-99.99,621.320007,,2013-06-11 16:03:00,
2013-06-11 10:12:00,86.0,41.0,30.06,East,79,5.0,9.0,20,-99.99,,,-99.99,560.659973,,2013-06-11 16:12:00,
2013-06-11 10:22:00,86.0,41.0,30.06,East,79,5.0,9.0,20,-99.99,,,-99.99,560.659973,,2013-06-11 16:22:00,
2013-06-11 10:32:00,86.0,41.0,30.06,East,79,5.0,9.0,20,-99.99,,,-99.99,560.659973,,2013-06-11 16:32:00,
2013-06-11 10:42:00,88.0,41.0,30.05,East,81,4.0,8.0,18,-99.99,,,-99.99,668.049988,,2013-06-11 16:42:00,
2013-06-11 10:52:00,88.0,41.0,30.05,East,81,4.0,8.0,18,-99.99,,,-99.99,668.049988,,2013-06-11 16:52:00,
2013-06-11 11:02:00,88.0,41.0,30.05,East,81,4.0,8.0,18,-99.99,,,-99.99,668.049988,,2013-06-11 17:02:00,
2013-06-11 11:12:00,90.0,40.0,30.05,SE,131,5.0,11.0,17,-99.99,,,-99.99,748.239990,,2013-06-11 17:12:00,
2013-06-11 11:22:00,91.0,40.0,30.05,SSE,147,6.0,13.0,16,-99.99,,,-99.99,788.679993,,2013-06-11 17:22:00,
2013-06-11 11:32:00,91.0,39.0,30.05,ESE,115,7.0,14.0,16,-99.99,,,-99.99,822.849976,,2013-06-11 17:32:00,
2013-06-11 11:43:00,91.0,39.0,30.05,ESE,115,7.0,14.0,16,-99.99,,,-99.99,822.849976,,2013-06-11 17:43:00,
2013-06-11 11:52:00,92.0,38.0,30.05,ESE,112,7.0,13.0,15,-99.99,,,-99.99,864.000000,,2013-06-11 17:52:00,
2013-06-11 12:02:00,92.0,38.0,30.05,ESE,112,7.0,13.0,15,-99.99,,,-99.99,864.000000,,2013-06-11 18:02:00,
2013-06-11 12:12:00,92.0,38.0,30.05,East,96,6.0,13.0,14,-99.99,,,-99.99,887.010010,,2013-06-11 18:12:00,
2013-06-11 12:22:00,93.0,38.0,30.04,East,100,6.0,13.0,14,-99.99,,,-99.99,899.559998,,2013-06-11 18:22:00,
2013-06-11 12:32:00,93.0,38.0,30.04,East,100,6.0,13.0,14,-99.99,,,-99.99,899.559998,,2013-06-11 18:32:00,
2013-06-11 12:42:00,94.0,38.0,30.04,East,83,5.0,11.0,14,-99.99,,,-99.99,907.229980,,2013-06-11 18:42:00,
2013-06-11 12:52:00,94.0,38.0,30.04,East,83,5.0,11.0,14,-99.99,,,-99.99,907.229980,,2013-06-11 18:52:00,
2013-06-11 13:02:00,94.0,38.0,30.04,East,83,5.0,11.0,14,-99.99,,,-99.99,907.229980,,2013-06-11 19:02:00,
2013-06-11 13:12:00,96.0,38.0,30.02,ESE,117,5.0,11.0,13,-99.99,,,-99.99,917.690002,,2013-06-11 19:12:00,
2013-06-11 13:22:00,97.0,38.0,30.02,East,91,5.0,12.0,12,-99.99,,,-99.99,913.510010,,2013-06-11 19:22:00,
2013-06-11 13:33:00,97.0,38.0,30.02,East,91,5.0,12.0,12,-99.99,,,-99.99,913.510010,,2013-06-11 19:33:00,
2013-06-11 13:42:00,97.0,37.0,30.01,SE,130,4.0,11.0,12,-99.99,,,-99.99,919.780029,,2013-06-11 19:42:00,
2013-06-11 13:53:00,97.0,37.0,30.01,SE,130,4.0,11.0,12,-99.99,,,-99.99,919.780029,,2013-06-11 19:53:00,
2013-06-11 14:02:00,97.0,37.0,30.01,SE,130,4.0,11.0,12,-99.99,,,-99.99,919.780029,,2013-06-11 20:02:00,
2013-06-11 14:12:00,99.0,35.0,30.00,WSW,255,3.0,11.0,11,-99.99,,,-99.99,912.109985,,2013-06-11 20:12:00,
2013-06-11 14:22:00,101.0,35.0,29.99,West,260,4.0,8.0,9,-99.99,,,-99.99,909.320007,,2013-06-11 20:22:00,
2013-06-11 14:32:00,101.0,35.0,29.99,West,260,4.0,8.0,9,-99.99,,,-99.99,909.320007,,2013-06-11 20:32:00,
2013-06-11 14:42:00,101.0,32.0,29.98,NE,51,5.0,9.0,9,-99.99,,,-99.99,910.020020,,2013-06-11 20:42:00,
2013-06-11 14:52:00,101.0,32.0,29.98,NE,51,5.0,9.0,9,-99.99,,,-99.99,910.020020,,2013-06-11 20:52:00,
2013-06-11 15:02:00,101.0,32.0,29.98,NE,51,5.0,9.0,9,-99.99,,,-99.99,910.020020,,2013-06-11 21:02:00,
2013-06-11 15:12:00,102.0,31.0,29.97,SSE,167,8.0,16.0,8,-99.99,,,-99.99,875.849976,,2013-06-11 21:12:00,
2013-06-11 15:22:00,101.0,29.0,29.96,SE,144,9.0,19.0,7,-99.99,,,-99.99,877.940002,,2013-06-11 21:22:00,
2013-06-11 15:33:00,101.0,29.0,29.96,SE,144,9.0,19.0,7,-99.99,,,-99.99,877.940002,,2013-06-11 21:33:00,
2013-06-11 15:42:00,102.0,29.0,29.96,SSE,160,7.0,20.0,7,-99.99,,,-99.99,837.500000,,2013-06-11 21:42:00,
2013-06-11 15:53:00,102.0,29.0,29.95,NE,53,7.0,14.0,7,-99.99,,,-99.99,824.250000,,2013-06-11 21:53:00,
2013-06-11 16:03:00,102.0,29.0,29.95,NE,53,7.0,14.0,7,-99.99,,,-99.99,824.250000,,2013-06-11 22:03:00,
2013-06-11 16:12:00,103.0,28.0,29.95,SSE,157,10.0,18.0,7,-99.99,,,-99.99,786.590027,,2013-06-11 22:12:00,
2013-06-11 16:22:00,103.0,28.0,29.94,South,191,10.0,16.0,7,-99.99,,,-99.99,728.710022,,2013-06-11 22:22:00,
2013-06-11 16:32:00,103.0,28.0,29.94,South,191,10.0,16.0,7,-99.99,,,-99.99,728.710022,,2013-06-11 22:32:00,
2013-06-11 16:42:00,103.0,28.0,29.93,SSW,205,5.0,11.0,7,-99.99,,,-99.99,702.210022,,2013-06-11 22:42:00,
2013-06-11 16:52:00,103.0,28.0,29.93,SSW,205,5.0,11.0,7,-99.99,,,-99.99,702.210022,,2013-06-11 22:52:00,
2013-06-11 17:02:00,103.0,28.0,29.93,SSW,205,5.0,11.0,7,-99.99,,,-99.99,702.210022,,2013-06-11 23:02:00,
2013-06-11 17:12:00,102.0,27.0,29.92,SSE,147,11.0,21.0,7,-99.99,,,-99.99,300.549988,,2013-06-11 23:12:00,
2013-06-11 17:22:00,101.0,28.0,29.92,ESE,118,8.0,13.0,7,-99.99,,,-99.99,262.200012,,2013-06-11 23:22:00,
2013-06-11 17:32:00,101.0,28.0,29.92,ESE,118,8.0,13.0,7,-99.99,,,-99.99,262.200012,,2013-06-11 23:32:00,
2013-06-11 17:42:00,100.0,29.0,29.92,SSE,150,8.0,17.0,8,-99.99,,,-99.99,255.220001,,2013-06-11 23:42:00,
2013-06-11 17:52:00,100.0,30.0,29.91,South,189,7.0,17.0,8,-99.99,,,-99.99,73.919998,,2013-06-11 23:52:00,
2013-06-11 18:02:00,100.0,30.0,29.91,South,189,7.0,17.0,8,-99.99,,,-99.99,73.919998,,2013-06-12 00:02:00,
2013-06-11 18:12:00,99.0,30.0,29.91,SSE,167,7.0,11.0,8,-99.99,,,-99.99,73.919998,,2013-06-12 00:12:00,
2013-06-11 18:22:00,100.0,30.0,29.90,SSE,152,6.0,11.0,8,-99.99,,,-99.99,233.610001,,2013-06-12 00:22:00,
2013-06-11 18:32:00,100.0,30.0,29.90,SSE,152,6.0,11.0,8,-99.99,,,-99.99,233.610001,,2013-06-12 00:32:00,
2013-06-11 18:42:00,100.0,30.0,29.90,SSE,152,6.0,11.0,8,-99.99,,,-99.99,233.610001,,2013-06-12 00:42:00,
2013-06-11 18:52:00,101.0,29.0,29.90,ESE,123,5.0,11.0,8,-99.99,,,-99.99,287.299988,,2013-06-12 00:52:00,
2013-06-11 19:02:00,101.0,29.0,29.90,ESE,123,5.0,11.0,8,-99.99,,,-99.99,287.299988,,2013-06-12 01:02:00,
2013-06-11 19:12:00,101.0,29.0,29.90,SSE,156,9.0,13.0,8,-99.99,,,-99.99,230.119995,,2013-06-12 01:12:00,
2013-06-11 19:22:00,100.0,29.0,29.90,SE,146,9.0,17.0,8,-99.99,,,-99.99,173.639999,,2013-06-12 01:22:00,
2013-06-11 19:32:00,100.0,29.0,29.90,SE,146,9.0,17.0,8,-99.99,,,-99.99,173.639999,,2013-06-12 01:32:00,
2013-06-11 19:42:00,99.0,29.0,29.90,SSE,152,8.0,12.0,8,-99.99,,,-99.99,116.449997,,2013-06-12 01:42:00,
2013-06-11 19:52:00,99.0,29.0,29.90,SSE,157,7.0,12.0,8,-99.99,,,-99.99,68.339996,,2013-06-12 01:52:00,
2013-06-11 20:02:00,99.0,29.0,29.90,SSE,157,7.0,12.0,8,-99.99,,,-99.99,68.339996,,2013-06-12 02:02:00,
2013-06-11 20:12:00,97.0,30.0,29.91,SSE,167,6.0,7.0,9,-99.99,,,-99.99,34.169998,,2013-06-12 02:12:00,
2013-06-11 20:22:00,93.0,32.0,29.91,South,176,5.0,8.0,11,-99.99,,,-99.99,13.250000,,2013-06-12 02:22:00,
2013-06-11 20:32:00,93.0,32.0,29.91,South,176,5.0,8.0,11,-99.99,,,-99.99,13.250000,,2013-06-12 02:32:00,
2013-06-11 20:42:00,92.0,32.0,29.91,South,176,5.0,7.0,11,-99.99,,,-99.99,4.180000,,2013-06-12 02:42:00,
2013-06-11 20:52:00,91.0,33.0,29.92,South,186,5.0,7.0,12,-99.99,,,-99.99,0.700000,,2013-06-12 02:52:00,
2013-06-11 21:02:00,91.0,33.0,29.92,South,186,5.0,7.0,12,-99.99,,,-99.99,0.700000,,2013-06-12 03:02:00,
2013-06-11 21:12:00,91.0,33.0,29.92,South,191,5.0,7.0,12,-99.99,,,-99.99,0.000000,,2013-06-12 03:12:00,
2013-06-11 21:22:00,90.0,33.0,29.93,South,190,5.0,7.0,13,-99.99,,,-99.99,0.000000,,2013-06-12 03:22:00,
2013-06-11 21:32:00,90.0,33.0,29.93,South,190,5.0,7.0,13,-99.99,,,-99.99,0.000000,,2013-06-12 03:32:00,
2013-06-11 21:43:00,90.0,32.0,29.93,SSW,202,4.0,7.0,12,-99.99,,,-99.99,0.000000,,2013-06-12 03:43:00,
2013-06-11 21:53:00,90.0,32.0,29.93,SSW,202,4.0,7.0,12,-99.99,,,-99.99,0.000000,,2013-06-12 03:53:00,
2013-06-11 22:03:00,90.0,32.0,29.93,SSW,202,4.0,7.0,12,-99.99,,,-99.99,0.000000,,2013-06-12 04:03:00,
2013-06-11 22:13:00,93.0,31.0,29.95,SSE,160,14.0,22.0,11,-99.99,,,-99.99,0.000000,,2013-06-12 04:13:00,
2013-06-11 22:23:00,94.0,32.0,29.95,South,170,18.0,27.0,11,-99.99,,,-99.99,0.000000,,2013-06-12 04:23:00,
2013-06-11 22:33:00,94.0,32.0,29.95,South,170,18.0,27.0,11,-99.99,,,-99.99,0.000000,,2013-06-12 04:33:00,
2013-06-11 22:42:00,94.0,32.0,29.95,South,170,18.0,27.0,11,-99.99,,,-99.99,0.000000,,2013-06-12 04:42:00,
2013-06-11 22:52:00,92.0,32.0,29.97,South,170,20.0,31.0,11,-99.99,,,-99.99,0.000000,,2013-06-12 04:52:00,
2013-06-11 23:03:00,92.0,32.0,29.97,South,170,20.0,31.0,11,-99.99,,,-99.99,0.000000,,2013-06-12 05:03:00,
2013-06-11 23:12:00,92.0,31.0,29.97,SSE,168,20.0,31.0,11,-99.99,,,-99.99,0.000000,,2013-06-12 05:12:00,
2013-06-11 23:22:00,91.0,30.0,29.98,South,170,21.0,35.0,11,-99.99,,,-99.99,0.000000,,2013-06-12 05:22:00,
2013-06-11 23:32:00,91.0,30.0,29.98,South,170,21.0,35.0,11,-99.99,,,-99.99,0.000000,,2013-06-12 05:32:00,
2013-06-11 23:42:00,91.0,29.0,29.98,SSE,164,23.0,41.0,10,-99.99,,,-99.99,0.000000,,2013-06-12 05:42:00,
2013-06-11 23:52:00,90.0,29.0,29.99,SSE,157,19.0,29.0,11,-99.99,,,-99.99,0.000000,,2013-06-12 05:52:00,